Kimberly Turecamo — WDC6838 — position and weather

sailwx.info

Track history (hours):
 
Tides and Currents Weather Stations Pressure Air Temp Water Temp Dewpoint Dewpoint Depression Visibility Wind Speed Wind Dir Waves Ship Positions

Kimberly Turecamo

Owner: Moran Towing Corporation, New Canaan, CT. More information available from US FCC via Universal Licensing System and Coast Guard Vessel Documentation Center.

Last reported at 2016-May-25 10:32 UTC. Time now 2016-May-25 11:11 UTC.
Position N 40°39' W 074°03'.

Length 33 m; draft 5 m.

Type: Towing. MMSI: 367061980.

Date/timePositionNaut miles runAvg speedWind from/ knotsBaromVisibWave heightAir tempDewpointWater temp
2016-May-25 10:32N 40°39' W 074°03'4 4.4
2016-May-25 09:33N 40°35' W 074°02'15 4.8
2016-May-25 06:23N 40°21' W 073°53'6 6.8
2016-May-25 05:33N 40°15' W 073°54'7 7.0
2016-May-25 04:33N 40°08' W 073°54'7 7.1
2016-May-25 03:33N 40°01' W 073°55'7 7.2
2016-May-25 02:33N 39°54' W 073°57'7 7.3
2016-May-25 01:33N 39°47' W 073°58'7 7.3
2016-May-25 00:33N 39°40' W 074°01'7 7.1
2016-May-24 23:33N 39°34' W 074°06'7 7.2
2016-May-24 22:32N 39°27' W 074°10'43 7.1
2016-May-24 16:33N 38°55' W 074°46'13 6.4
2016-May-24 14:33N 38°49' W 075°00'6 5.5
2016-May-24 13:33N 38°53' W 075°04'4 3.6
2016-May-24 12:20N 38°57' W 075°07'6 7.3
2016-May-24 11:34N 39°02' W 075°10'9 8.7
2016-May-24 10:33N 39°10' W 075°16'1010.1
2016-May-24 09:33N 39°18' W 075°23'1010.4
2016-May-24 08:33N 39°26' W 075°32'8 7.9
2016-May-24 07:33N 39°34' W 075°34'5 5.2
2016-May-24 06:33N 39°33' W 075°41'5 4.7
2016-May-24 05:33N 39°32' W 075°47'6 5.7
2016-May-24 04:33N 39°31' W 075°54'8 7.9
2016-May-24 03:33N 39°25' W 076°01'8 8.4
2016-May-24 02:33N 39°21' W 076°10'8 8.3
2016-May-24 01:33N 39°13' W 076°15'7 6.9
2016-May-24 00:33N 39°10' W 076°23'8 7.9
2016-May-23 23:33N 39°13' W 076°32'3 1.8
2016-May-23 22:10N 39°13' W 076°35'0 0.0
2016-May-23 21:28N 39°13' W 076°35'0 0.0
2016-May-23 20:31N 39°13' W 076°35'0 0.0
2016-May-23 18:22N 39°13' W 076°35'0 0.0
2016-May-23 17:16N 39°13' W 076°35'0 0.0
2016-May-23 14:30N 39°13' W 076°35'0 0.0
2016-May-23 12:30N 39°13' W 076°35'0 0.0
2016-May-23 11:33N 39°13' W 076°35'0 0.0
2016-May-23 10:33N 39°13' W 076°35'0 0.0
2016-May-23 09:33N 39°13' W 076°35'1 0.5
2016-May-23 08:32N 39°13' W 076°34'2 0.6
2016-May-23 05:28N 39°15' W 076°33'0 0.0
2016-May-23 04:31N 39°15' W 076°33'0 0.0
2016-May-23 02:28N 39°15' W 076°33'0 0.0
2016-May-22 22:22N 39°15' W 076°33'0 0.0
2016-May-22 21:25N 39°15' W 076°33'0 0.0
2016-May-22 16:25N 39°15' W 076°33'2 2.8
2016-May-22 15:32N 39°13' W 076°35'2 0.4
2016-May-22 09:32N 39°15' W 076°33'0 0.0
2016-May-22 08:29N 39°15' W 076°33'0 0.0
2016-May-22 07:26N 39°15' W 076°33'0 0.0
2016-May-22 06:32N 39°15' W 076°33'0 0.0
2016-May-22 05:29N 39°15' W 076°33'0 0.0
2016-May-22 04:32N 39°15' W 076°33'0 0.0
2016-May-22 03:32N 39°15' W 076°33'0 0.0
2016-May-22 02:32N 39°15' W 076°33'0 0.0
2016-May-22 01:31N 39°15' W 076°33'0 0.0
2016-May-22 00:31N 39°15' W 076°33'0 0.0
2016-May-21 23:20N 39°15' W 076°33'0 0.0
2016-May-21 22:31N 39°15' W 076°33'0 0.0
2016-May-21 21:31N 39°15' W 076°33'0 0.0
2016-May-21 20:31N 39°15' W 076°33'0 0.0
2016-May-21 19:31N 39°15' W 076°33'0 0.0
2016-May-21 18:16N 39°15' W 076°33'0 0.0
2016-May-21 17:31N 39°15' W 076°33'0 0.0
2016-May-21 16:31N 39°15' W 076°33'0 0.0
2016-May-21 15:31N 39°15' W 076°33'0 0.0
2016-May-21 14:13N 39°15' W 076°33'0 0.0
2016-May-21 13:31N 39°15' W 076°33'0 0.0
2016-May-21 12:31N 39°15' W 076°33'0 0.0
2016-May-21 11:31N 39°15' W 076°33'0 0.0
2016-May-21 10:31N 39°15' W 076°33'0 0.0
2016-May-21 09:31N 39°15' W 076°33'0 0.0
2016-May-21 08:31N 39°15' W 076°33'0 0.0
2016-May-21 05:19N 39°15' W 076°33'0 0.0
2016-May-21 04:31N 39°15' W 076°33'0 0.0
2016-May-21 03:28N 39°15' W 076°33'0 0.0
2016-May-21 02:28N 39°15' W 076°33'0 0.0
2016-May-21 01:31N 39°15' W 076°33'0 0.0
2016-May-20 20:31N 39°15' W 076°33'0 0.0
2016-May-20 19:28N 39°15' W 076°33'1 0.7
2016-May-20 18:34N 39°15' W 076°34'1 0.6
2016-May-20 17:30N 39°15' W 076°33'1 1.1
2016-May-20 16:33N 39°16' W 076°34'1 1.0
2016-May-20 15:31N 39°15' W 076°33'0 0.0
2016-May-20 14:19N 39°15' W 076°33'0 0.0
2016-May-20 13:31N 39°15' W 076°33'0 0.1
2016-May-20 12:31N 39°15' W 076°33'0 0.0
2016-May-20 11:31N 39°15' W 076°33'0 0.0
2016-May-20 10:34N 39°15' W 076°33'0 0.0
2016-May-20 09:34N 39°15' W 076°33'0 0.0
2016-May-20 08:30N 39°15' W 076°33'0 0.0
2016-May-20 07:27N 39°15' W 076°33'0 0.0
2016-May-20 06:33N 39°15' W 076°33'1 0.7
2016-May-20 05:33N 39°14' W 076°33'7 7.5
2016-May-20 04:33N 39°10' W 076°25'8 7.6
2016-May-20 03:33N 39°12' W 076°16'9 9.4
2016-May-20 02:33N 39°21' W 076°11'9 9.0
2016-May-20 01:33N 39°26' W 076°01'8 7.6
2016-May-20 00:33N 39°31' W 075°54'7 6.8
2016-May-19 23:33N 39°32' W 075°45'7 7.1
2016-May-19 22:33N 39°33' W 075°36'5 5.2
2016-May-19 21:33N 39°28' W 075°34'7 7.1
2016-May-19 20:33N 39°23' W 075°28'7 6.8
2016-May-19 19:33N 39°18' W 075°22'7 6.7
2016-May-19 18:33N 39°12' W 075°17'7 7.2
2016-May-19 17:33N 39°06' W 075°12'32 5.1
2016-May-19 11:26N 39°07' W 074°32'27 9.4
2016-May-19 08:33N 39°28' W 074°10'9 9.3
2016-May-19 07:33N 39°36' W 074°04'9 9.2
2016-May-19 06:33N 39°45' W 073°59'45 9.0
2016-May-19 01:33N 40°30' W 073°56'9 8.6
2016-May-19 00:33N 40°36' W 074°03'3 2.6
2016-May-18 23:34N 40°39' W 074°02'0 0.0
2016-May-18 22:33N 40°39' W 074°02'0 0.0
2016-May-18 21:33N 40°39' W 074°02'0 0.0
2016-May-18 20:33N 40°39' W 074°02'0 0.1
2016-May-18 19:33N 40°39' W 074°02'0 0.0
2016-May-18 18:33N 40°39' W 074°03'0 0.0
2016-May-18 17:33N 40°39' W 074°03'0 0.0
2016-May-18 16:33N 40°39' W 074°03'0 0.0
2016-May-18 15:33N 40°39' W 074°03'0 0.0
2016-May-18 14:33N 40°39' W 074°03'0 0.0
2016-May-18 13:33N 40°39' W 074°03'1 0.7
2016-May-18 12:33N 40°39' W 074°02'4 3.8
2016-May-18 11:33N 40°42' W 073°58'0 0.0
2016-May-18 10:33N 40°42' W 073°58'4 4.2
2016-May-18 09:33N 40°40' W 074°03'1 0.8
2016-May-18 08:33N 40°39' W 074°03'2 2.1
2016-May-18 07:33N 40°40' W 074°05'2 1.6
2016-May-18 06:34N 40°39' W 074°06'2 2.2
2016-May-18 05:33N 40°40' W 074°08'1 1.4
2016-May-18 04:33N 40°39' W 074°08'0 0.2
2016-May-18 03:31N 40°38' W 074°08'0 0.0
2016-May-18 02:31N 40°38' W 074°08'0 0.0
2016-May-18 01:32N 40°38' W 074°08'3 1.0
2016-May-17 22:33N 40°38' W 074°12'4 3.5
2016-May-17 21:33N 40°40' W 074°08'2 1.9
2016-May-17 20:33N 40°38' W 074°08'0 0.0
2016-May-17 19:33N 40°38' W 074°08'0 0.0
2016-May-17 18:33N 40°38' W 074°08'2 1.5
2016-May-17 17:33N 40°40' W 074°09'2 1.6
2016-May-17 16:33N 40°39' W 074°07'5 5.1
2016-May-17 15:33N 40°36' W 074°02'1 1.0
2016-May-17 14:33N 40°36' W 074°03'4 4.5
2016-May-17 13:33N 40°38' W 074°08'0 0.0
2016-May-17 12:33N 40°38' W 074°08'0 0.0
2016-May-17 11:33N 40°38' W 074°08'0 0.0
2016-May-17 10:33N 40°38' W 074°08'0 0.0
2016-May-17 09:33N 40°38' W 074°08'0 0.0
2016-May-17 08:33N 40°38' W 074°08'0 0.0
2016-May-17 07:33N 40°38' W 074°08'0 0.0
2016-May-17 06:33N 40°38' W 074°08'0 0.0
2016-May-17 05:33N 40°38' W 074°08'0 0.0
2016-May-17 04:33N 40°38' W 074°08'0 0.0
2016-May-17 03:33N 40°38' W 074°08'0 0.0
2016-May-17 02:33N 40°38' W 074°08'0 0.0
2016-May-17 01:33N 40°38' W 074°08'2 0.1
2016-May-16 13:09N 40°40' W 074°09'2 2.7
2016-May-16 12:31N 40°39' W 074°07'3 3.4
2016-May-16 11:33N 40°40' W 074°03'1 1.0
2016-May-16 10:33N 40°41' W 074°04'3 3.4
2016-May-16 09:31N 40°38' W 074°03'2 0.8
2016-May-16 06:34N 40°40' W 074°02'2 0.3
2016-May-15 22:18N 40°39' W 074°06'1 1.9
2016-May-15 21:33N 40°40' W 074°05'3 2.4
2016-May-15 20:27N 40°38' W 074°03'4 1.6
2016-May-15 18:08N 40°38' W 074°08'0 0.0
2016-May-15 17:11N 40°38' W 074°08'0 0.0
2016-May-15 16:32N 40°38' W 074°08'0 0.0
2016-May-15 15:29N 40°38' W 074°08'0 0.0
2016-May-15 14:17N 40°38' W 074°08'0 0.0
2016-May-15 13:32N 40°38' W 074°08'0 0.0
2016-May-15 12:29N 40°38' W 074°08'  
Track history (hours):
 
Tides and Currents Weather Stations Pressure Air Temp Water Temp Dewpoint Dewpoint Depression Visibility Wind Speed Wind Dir Waves Ship Positions

Kimberly Turecamo

Owner: Moran Towing Corporation, New Canaan, CT. More information available from US FCC via Universal Licensing System and Coast Guard Vessel Documentation Center.

Last reported at 2016-May-25 10:32 UTC. Time now 2016-May-25 11:11 UTC.
Position N 40°39' W 074°03'.

Length 33 m; draft 5 m.

Type: Towing. MMSI: 367061980.

Date/timePositionNaut miles runAvg speedWind from/ knotsBaromVisibWave heightAir tempDewpointWater temp
2016-May-25 10:32N 40°39' W 074°03'4 4.4
2016-May-25 09:33N 40°35' W 074°02'15 4.8
2016-May-25 06:23N 40°21' W 073°53'6 6.8
2016-May-25 05:33N 40°15' W 073°54'7 7.0
2016-May-25 04:33N 40°08' W 073°54'7 7.1
2016-May-25 03:33N 40°01' W 073°55'7 7.2
2016-May-25 02:33N 39°54' W 073°57'7 7.3
2016-May-25 01:33N 39°47' W 073°58'7 7.3
2016-May-25 00:33N 39°40' W 074°01'7 7.1
2016-May-24 23:33N 39°34' W 074°06'7 7.2
2016-May-24 22:32N 39°27' W 074°10'43 7.1
2016-May-24 16:33N 38°55' W 074°46'13 6.4
2016-May-24 14:33N 38°49' W 075°00'6 5.5
2016-May-24 13:33N 38°53' W 075°04'4 3.6
2016-May-24 12:20N 38°57' W 075°07'6 7.3
2016-May-24 11:34N 39°02' W 075°10'9 8.7
2016-May-24 10:33N 39°10' W 075°16'1010.1
2016-May-24 09:33N 39°18' W 075°23'1010.4
2016-May-24 08:33N 39°26' W 075°32'8 7.9
2016-May-24 07:33N 39°34' W 075°34'5 5.2
2016-May-24 06:33N 39°33' W 075°41'5 4.7
2016-May-24 05:33N 39°32' W 075°47'6 5.7
2016-May-24 04:33N 39°31' W 075°54'8 7.9
2016-May-24 03:33N 39°25' W 076°01'8 8.4
2016-May-24 02:33N 39°21' W 076°10'8 8.3
2016-May-24 01:33N 39°13' W 076°15'7 6.9
2016-May-24 00:33N 39°10' W 076°23'8 7.9
2016-May-23 23:33N 39°13' W 076°32'3 1.8
2016-May-23 22:10N 39°13' W 076°35'0 0.0
2016-May-23 21:28N 39°13' W 076°35'0 0.0
2016-May-23 20:31N 39°13' W 076°35'0 0.0
2016-May-23 18:22N 39°13' W 076°35'0 0.0
2016-May-23 17:16N 39°13' W 076°35'0 0.0
2016-May-23 14:30N 39°13' W 076°35'0 0.0
2016-May-23 12:30N 39°13' W 076°35'0 0.0
2016-May-23 11:33N 39°13' W 076°35'0 0.0
2016-May-23 10:33N 39°13' W 076°35'0 0.0
2016-May-23 09:33N 39°13' W 076°35'1 0.5
2016-May-23 08:32N 39°13' W 076°34'2 0.6
2016-May-23 05:28N 39°15' W 076°33'0 0.0
2016-May-23 04:31N 39°15' W 076°33'0 0.0
2016-May-23 02:28N 39°15' W 076°33'0 0.0
2016-May-22 22:22N 39°15' W 076°33'0 0.0
2016-May-22 21:25N 39°15' W 076°33'0 0.0
2016-May-22 16:25N 39°15' W 076°33'2 2.8
2016-May-22 15:32N 39°13' W 076°35'2 0.4
2016-May-22 09:32N 39°15' W 076°33'0 0.0
2016-May-22 08:29N 39°15' W 076°33'0 0.0
2016-May-22 07:26N 39°15' W 076°33'0 0.0
2016-May-22 06:32N 39°15' W 076°33'0 0.0
2016-May-22 05:29N 39°15' W 076°33'0 0.0
2016-May-22 04:32N 39°15' W 076°33'0 0.0
2016-May-22 03:32N 39°15' W 076°33'0 0.0
2016-May-22 02:32N 39°15' W 076°33'0 0.0
2016-May-22 01:31N 39°15' W 076°33'0 0.0
2016-May-22 00:31N 39°15' W 076°33'0 0.0
2016-May-21 23:20N 39°15' W 076°33'0 0.0
2016-May-21 22:31N 39°15' W 076°33'0 0.0
2016-May-21 21:31N 39°15' W 076°33'0 0.0
2016-May-21 20:31N 39°15' W 076°33'0 0.0
2016-May-21 19:31N 39°15' W 076°33'0 0.0
2016-May-21 18:16N 39°15' W 076°33'0 0.0
2016-May-21 17:31N 39°15' W 076°33'0 0.0
2016-May-21 16:31N 39°15' W 076°33'0 0.0
2016-May-21 15:31N 39°15' W 076°33'0 0.0
2016-May-21 14:13N 39°15' W 076°33'0 0.0
2016-May-21 13:31N 39°15' W 076°33'0 0.0
2016-May-21 12:31N 39°15' W 076°33'0 0.0
2016-May-21 11:31N 39°15' W 076°33'0 0.0
2016-May-21 10:31N 39°15' W 076°33'0 0.0
2016-May-21 09:31N 39°15' W 076°33'0 0.0
2016-May-21 08:31N 39°15' W 076°33'0 0.0
2016-May-21 05:19N 39°15' W 076°33'0 0.0
2016-May-21 04:31N 39°15' W 076°33'0 0.0
2016-May-21 03:28N 39°15' W 076°33'0 0.0
2016-May-21 02:28N 39°15' W 076°33'0 0.0
2016-May-21 01:31N 39°15' W 076°33'0 0.0
2016-May-20 20:31N 39°15' W 076°33'0 0.0
2016-May-20 19:28N 39°15' W 076°33'1 0.7
2016-May-20 18:34N 39°15' W 076°34'1 0.6
2016-May-20 17:30N 39°15' W 076°33'1 1.1
2016-May-20 16:33N 39°16' W 076°34'1 1.0
2016-May-20 15:31N 39°15' W 076°33'0 0.0
2016-May-20 14:19N 39°15' W 076°33'0 0.0
2016-May-20 13:31N 39°15' W 076°33'0 0.1
2016-May-20 12:31N 39°15' W 076°33'0 0.0
2016-May-20 11:31N 39°15' W 076°33'0 0.0
2016-May-20 10:34N 39°15' W 076°33'0 0.0
2016-May-20 09:34N 39°15' W 076°33'0 0.0
2016-May-20 08:30N 39°15' W 076°33'0 0.0
2016-May-20 07:27N 39°15' W 076°33'0 0.0
2016-May-20 06:33N 39°15' W 076°33'1 0.7
2016-May-20 05:33N 39°14' W 076°33'7 7.5
2016-May-20 04:33N 39°10' W 076°25'8 7.6
2016-May-20 03:33N 39°12' W 076°16'9 9.4
2016-May-20 02:33N 39°21' W 076°11'9 9.0
2016-May-20 01:33N 39°26' W 076°01'8 7.6
2016-May-20 00:33N 39°31' W 075°54'7 6.8
2016-May-19 23:33N 39°32' W 075°45'7 7.1
2016-May-19 22:33N 39°33' W 075°36'5 5.2
2016-May-19 21:33N 39°28' W 075°34'7 7.1
2016-May-19 20:33N 39°23' W 075°28'7 6.8
2016-May-19 19:33N 39°18' W 075°22'7 6.7
2016-May-19 18:33N 39°12' W 075°17'7 7.2
2016-May-19 17:33N 39°06' W 075°12'32 5.1
2016-May-19 11:26N 39°07' W 074°32'27 9.4
2016-May-19 08:33N 39°28' W 074°10'9 9.3
2016-May-19 07:33N 39°36' W 074°04'9 9.2
2016-May-19 06:33N 39°45' W 073°59'45 9.0
2016-May-19 01:33N 40°30' W 073°56'9 8.6
2016-May-19 00:33N 40°36' W 074°03'3 2.6
2016-May-18 23:34N 40°39' W 074°02'0 0.0
2016-May-18 22:33N 40°39' W 074°02'0 0.0
2016-May-18 21:33N 40°39' W 074°02'0 0.0
2016-May-18 20:33N 40°39' W 074°02'0 0.1
2016-May-18 19:33N 40°39' W 074°02'0 0.0
2016-May-18 18:33N 40°39' W 074°03'0 0.0
2016-May-18 17:33N 40°39' W 074°03'0 0.0
2016-May-18 16:33N 40°39' W 074°03'0 0.0
2016-May-18 15:33N 40°39' W 074°03'0 0.0
2016-May-18 14:33N 40°39' W 074°03'0 0.0
2016-May-18 13:33N 40°39' W 074°03'1 0.7
2016-May-18 12:33N 40°39' W 074°02'4 3.8
2016-May-18 11:33N 40°42' W 073°58'0 0.0
2016-May-18 10:33N 40°42' W 073°58'4 4.2
2016-May-18 09:33N 40°40' W 074°03'1 0.8
2016-May-18 08:33N 40°39' W 074°03'2 2.1
2016-May-18 07:33N 40°40' W 074°05'2 1.6
2016-May-18 06:34N 40°39' W 074°06'2 2.2
2016-May-18 05:33N 40°40' W 074°08'1 1.4
2016-May-18 04:33N 40°39' W 074°08'0 0.2
2016-May-18 03:31N 40°38' W 074°08'0 0.0
2016-May-18 02:31N 40°38' W 074°08'0 0.0
2016-May-18 01:32N 40°38' W 074°08'3 1.0
2016-May-17 22:33N 40°38' W 074°12'4 3.5
2016-May-17 21:33N 40°40' W 074°08'2 1.9
2016-May-17 20:33N 40°38' W 074°08'0 0.0
2016-May-17 19:33N 40°38' W 074°08'0 0.0
2016-May-17 18:33N 40°38' W 074°08'2 1.5
2016-May-17 17:33N 40°40' W 074°09'2 1.6
2016-May-17 16:33N 40°39' W 074°07'5 5.1
2016-May-17 15:33N 40°36' W 074°02'1 1.0
2016-May-17 14:33N 40°36' W 074°03'4 4.5
2016-May-17 13:33N 40°38' W 074°08'0 0.0
2016-May-17 12:33N 40°38' W 074°08'0 0.0
2016-May-17 11:33N 40°38' W 074°08'0 0.0
2016-May-17 10:33N 40°38' W 074°08'0 0.0
2016-May-17 09:33N 40°38' W 074°08'0 0.0
2016-May-17 08:33N 40°38' W 074°08'0 0.0
2016-May-17 07:33N 40°38' W 074°08'0 0.0
2016-May-17 06:33N 40°38' W 074°08'0 0.0
2016-May-17 05:33N 40°38' W 074°08'0 0.0
2016-May-17 04:33N 40°38' W 074°08'0 0.0
2016-May-17 03:33N 40°38' W 074°08'0 0.0
2016-May-17 02:33N 40°38' W 074°08'0 0.0
2016-May-17 01:33N 40°38' W 074°08'2 0.1
2016-May-16 13:09N 40°40' W 074°09'2 2.7
2016-May-16 12:31N 40°39' W 074°07'3 3.4
2016-May-16 11:33N 40°40' W 074°03'1 1.0
2016-May-16 10:33N 40°41' W 074°04'3 3.4
2016-May-16 09:31N 40°38' W 074°03'2 0.8
2016-May-16 06:34N 40°40' W 074°02'2 0.3
2016-May-15 22:18N 40°39' W 074°06'1 1.9
2016-May-15 21:33N 40°40' W 074°05'3 2.4
2016-May-15 20:27N 40°38' W 074°03'4 1.6
2016-May-15 18:08N 40°38' W 074°08'0 0.0
2016-May-15 17:11N 40°38' W 074°08'0 0.0
2016-May-15 16:32N 40°38' W 074°08'0 0.0
2016-May-15 15:29N 40°38' W 074°08'0 0.0
2016-May-15 14:17N 40°38' W 074°08'0 0.0
2016-May-15 13:32N 40°38' W 074°08'0 0.0
2016-May-15 12:29N 40°38' W 074°08'  

Dump ship's entire track history